Crossville, TN

4:30 PM CDT on August 23, 2016 (GMT -0500)
Crossville City Hall | | Change Station

Elev 1867 ft 35.95 °N, 85.03 °W | Updated 3 minutes ago

Clear
Clear
83.0 °F
Feels Like 85 °F
N
0.0
Wind Variable Wind from NW
Gusts 9.0 mph

Today
High -- | Low -- °F
--% Chance of Precip.
Yesterday
High -- | Low -- °F
Precip. -- in
Pressure 30.23 in
Visibility 10.0 miles
Clouds Clear
Heat Index 85 °F
Dew Point 65 °F
Humidity 54%
Rainfall 0.00 in
Snow Depth Not available.
6:05 AM 7:19 PM
Waning Gibbous, 64% visible
METAR KCSV 232053Z AUTO 28007KT 260V320 10SM CLR 27/17 A3028 RMK AO2 SLP236 T02670172 56014
Pressure 30.23 in
Visibility 10.0 miles
Clouds Clear
Heat Index 85 °F
Dew Point 65 °F
Humidity 54%
Rainfall 0.00 in
Snow Depth Not available.
6:05 AM 7:19 PM
Waning Gibbous, 64% visible
METAR KCSV 232053Z AUTO 28007KT 260V320 10SM CLR 27/17 A3028 RMK AO2 SLP236 T02670172 56014

10-Day Weather Forecast

Almanac

Astronomy

Aug. 23, 2016 Rise Set
Actual Time
Civil Twilight
Nautical Twilight
Astronomical Twilight
Moon
Length of Visible Light
Length of Day
Tomorrow will be .
, % of the Moon is Illuminated

Today's Extremes

State Highs State Lows

Community

WunderPhotos

Upload Photos

1,934,464 photos uploaded!

WunderBlog® & News

Nearby

Air Quality

  Air Quality AQ Index Pollutant
Not available.

Snow Depth

Station Depth Elevation

Earthquake Activity

City Distance Mag. Time & Date
Minimum magnitude displayed is 2.5.

Coastal Water Temperatures

Place Temperature

Stations

Nearby Weather Stations

Station Location Temp. Windchill Dew Point Humidity Wind Precip. Elev Updated Type
                   

Watches & Warnings

There are currently no watches in effect.